Time;durP1;ratioP1;P1;durP2;ratioP2;P2;SDS_P1;SDS_P2;PMS_P1;PMS_P2;Temp;Humidity;BMP_temperature;BMP_pressure;BME280_temperature;BME280_humidity;BME280_pressure;Samples;Min_cycle;Max_cycle;Signal;HPM_P1;HPM_P2
2023/03/11 00:00:08;;;;;;;3.50;1.73;;;;;;;-0.37;100.00;91872.66;2532907;23;20006;-82
2023/03/11 00:01:10;;;;;;;1.30;1.10;;;;;;;-0.33;100.00;91862.91;2533769;23;20022;-82
2023/03/11 00:02:11;;;;;;;2.03;1.50;;;;;;;-0.41;100.00;91850.94;2532687;23;20295;-81
2023/03/11 00:03:16;;;;;;;2.28;1.52;;;;;;;-0.53;100.00;91865.22;2520161;23;20077;-83
2023/03/11 00:04:17;;;;;;;2.00;1.58;;;;;;;-0.45;100.00;91855.44;2522242;23;20038;-83
2023/03/11 00:05:33;;;;;;;1.77;1.65;;;;;;;-0.42;100.00;91867.06;2520815;23;20370;-82
2023/03/11 00:06:35;;;;;;;3.60;1.60;;;;;;;-0.39;100.00;91858.44;2538808;23;20056;-83
2023/03/11 00:07:38;;;;;;;2.13;1.90;;;;;;;-0.47;100.00;91872.69;2532915;23;20088;-83
2023/03/11 00:08:40;;;;;;;2.38;1.55;;;;;;;-0.46;100.00;91861.06;2521193;23;20006;-84
2023/03/11 00:09:41;;;;;;;1.73;1.40;;;;;;;-0.35;100.00;91864.41;2532650;23;20112;-80
2023/03/11 00:10:45;;;;;;;2.58;1.40;;;;;;;-0.35;100.00;91867.81;2532712;23;20005;-83
2023/03/11 00:11:46;;;;;;;1.40;1.30;;;;;;;-0.43;100.00;91868.19;2532846;23;20465;-83
2023/03/11 00:12:53;;;;;;;2.10;1.55;;;;;;;-0.42;100.00;91888.06;2532740;23;20005;-83
2023/03/11 00:13:54;;;;;;;1.45;1.35;;;;;;;-0.58;100.00;91873.44;2532941;23;20010;-84
2023/03/11 00:14:55;;;;;;;1.58;1.42;;;;;;;-0.67;100.00;91880.94;2532581;23;20009;-81
2023/03/11 00:15:59;;;;;;;2.15;1.60;;;;;;;-0.63;100.00;91881.69;2520518;23;20217;-82
2023/03/11 00:17:01;;;;;;;1.90;1.70;;;;;;;-0.67;100.00;91880.94;2509616;23;20011;-82
2023/03/11 00:18:04;;;;;;;2.40;2.20;;;;;;;-0.68;100.00;91882.06;2521423;23;20036;-81
2023/03/11 00:19:05;;;;;;;2.20;1.73;;;;;;;-0.64;100.00;91882.06;2532875;23;20013;-81
2023/03/11 00:20:13;;;;;;;2.30;1.63;;;;;;;-0.57;100.00;91868.94;2532722;23;20009;-84
2023/03/11 00:21:16;;;;;;;1.48;1.38;;;;;;;-0.38;100.00;91871.19;2534013;23;20378;-83
2023/03/11 00:22:17;;;;;;;1.70;1.55;;;;;;;-0.52;100.00;91868.56;2532295;23;20012;-87
2023/03/11 00:23:18;;;;;;;2.17;1.70;;;;;;;-0.53;100.00;91870.47;2532607;23;20009;-81
2023/03/11 00:24:19;;;;;;;2.83;1.77;;;;;;;-0.56;100.00;91862.56;2532624;23;20006;-83
2023/03/11 00:25:23;;;;;;;1.83;1.73;;;;;;;-0.39;100.00;91866.31;2532613;23;20076;-81
2023/03/11 00:26:24;;;;;;;1.83;1.42;;;;;;;-0.40;100.00;91859.53;2521299;23;20003;-83
2023/03/11 00:27:25;;;;;;;2.95;1.60;;;;;;;-0.52;100.00;91858.81;2532718;23;20009;-84
2023/03/11 00:28:26;;;;;;;1.75;1.55;;;;;;;-0.48;100.00;91858.06;2520147;23;20085;-83
2023/03/11 00:29:27;;;;;;;1.80;1.67;;;;;;;-0.60;100.00;91869.69;2520750;23;20525;-84
2023/03/11 00:30:28;;;;;;;2.38;1.70;;;;;;;-0.64;100.00;91869.69;2520666;23;20010;-83
2023/03/11 00:31:29;;;;;;;1.55;1.45;;;;;;;-0.42;100.00;91880.19;2520210;23;20419;-86
2023/03/11 00:32:30;;;;;;;4.70;1.95;;;;;;;-0.54;100.00;91862.94;2532013;23;19998;-84
2023/03/11 00:33:32;;;;;;;3.15;2.00;;;;;;;-0.61;100.00;91860.34;2520388;23;20446;-85
2023/03/11 00:34:33;;;;;;;1.80;1.70;;;;;;;-0.58;100.00;91860.31;2520284;23;20002;-83
2023/03/11 00:35:36;;;;;;;2.75;1.73;;;;;;;-0.56;100.00;91850.22;2532492;23;20002;-82
2023/03/11 00:36:37;;;;;;;2.08;1.50;;;;;;;-0.60;100.00;91856.59;2520642;23;20002;-81
2023/03/11 00:37:38;;;;;;;1.95;1.83;;;;;;;-0.55;100.00;91851.69;2520188;23;20332;-84
2023/03/11 00:38:40;;;;;;;2.30;1.73;;;;;;;-0.48;100.00;91845.72;2520610;23;20006;-83
2023/03/11 00:39:43;;;;;;;1.30;1.20;;;;;;;-0.44;100.00;91845.69;2532390;23;20064;-85
2023/03/11 00:40:46;;;;;;;2.60;1.60;;;;;;;-0.46;100.00;91840.81;2520779;23;20006;-85
2023/03/11 00:41:47;;;;;;;2.13;1.90;;;;;;;-0.65;100.00;91857.72;2533414;23;20002;-85
2023/03/11 00:42:48;;;;;;;2.58;1.90;;;;;;;-0.78;100.00;91844.22;2544575;23;20009;-83
2023/03/11 00:43:49;;;;;;;2.10;1.90;;;;;;;-0.78;100.00;91857.34;2520636;23;20423;-85
2023/03/11 00:44:50;;;;;;;2.58;1.77;;;;;;;-0.68;100.00;91866.31;2520321;23;20014;-83
2023/03/11 00:45:51;;;;;;;1.92;1.75;;;;;;;-0.74;100.00;91864.47;2520716;23;20295;-80
2023/03/11 00:46:52;;;;;;;3.75;2.00;;;;;;;-0.81;100.00;91875.69;2532507;23;20016;-86
2023/03/11 00:47:54;;;;;;;1.98;1.77;;;;;;;-0.76;100.00;91878.69;2520905;23;20017;-84
2023/03/11 00:48:55;;;;;;;2.22;1.83;;;;;;;-0.86;100.00;91876.81;2532718;23;20037;-82
2023/03/11 00:49:56;;;;;;;2.25;1.80;;;;;;;-0.68;100.00;91879.44;2520250;23;20006;-81
2023/03/11 00:50:57;;;;;;;1.73;1.63;;;;;;;-0.61;100.00;91886.56;2532574;23;20017;-85
2023/03/11 00:51:58;;;;;;;3.30;1.75;;;;;;;-0.62;100.00;91892.94;2544622;23;20006;-82
2023/03/11 00:53:00;;;;;;;3.00;1.90;;;;;;;-0.47;100.00;91899.69;2544944;23;20077;-82
2023/03/11 00:54:01;;;;;;;1.70;1.60;;;;;;;-0.78;100.00;91901.19;2532756;23;20021;-82
2023/03/11 00:55:03;;;;;;;2.03;1.80;;;;;;;-0.83;100.00;91893.69;2520742;23;20010;-82
2023/03/11 00:56:08;;;;;;;2.53;2.03;;;;;;;-0.83;100.00;91891.81;2520686;23;20007;-81
2023/03/11 00:57:09;;;;;;;2.72;2.17;;;;;;;-0.92;100.00;91894.06;2510730;23;20148;-82
2023/03/11 00:58:11;;;;;;;3.45;2.08;;;;;;;-0.65;100.00;91902.31;2520554;23;19998;-81
2023/03/11 00:59:12;;;;;;;1.90;1.73;;;;;;;-0.64;100.00;91892.56;2520752;23;20013;-84
2023/03/11 01:00:17;;;;;;;2.97;1.83;;;;;;;-0.71;100.00;91885.44;2520598;23;20273;-82
2023/03/11 01:01:20;;;;;;;3.45;1.90;;;;;;;-0.67;100.00;91886.19;2532458;23;20045;-83
2023/03/11 01:02:22;;;;;;;3.55;2.00;;;;;;;-0.72;100.00;91878.69;2544744;23;20000;-82
2023/03/11 01:03:24;;;;;;;1.80;1.70;;;;;;;-0.60;100.00;91880.94;2532383;23;20006;-80
2023/03/11 01:04:25;;;;;;;2.15;1.77;;;;;;;-0.53;100.00;91873.06;2521042;23;20010;-83
2023/03/11 01:05:29;;;;;;;1.70;1.60;;;;;;;-0.52;100.00;91877.19;2520508;23;20087;-82
2023/03/11 01:06:30;;;;;;;2.75;1.58;;;;;;;-0.64;100.00;91876.81;2533785;23;20005;-82
2023/03/11 01:07:32;;;;;;;1.73;1.63;;;;;;;-0.64;100.00;91877.56;2544573;23;20018;-81
2023/03/11 01:08:34;;;;;;;2.42;1.77;;;;;;;-0.56;100.00;91875.69;2532473;23;20311;-82
2023/03/11 01:09:35;;;;;;;2.05;1.60;;;;;;;-0.57;100.00;91885.44;2532813;23;20018;-81
2023/03/11 01:10:37;;;;;;;2.20;1.63;;;;;;;-0.70;100.00;91886.94;2544685;23;20025;-84
2023/03/11 01:11:38;;;;;;;2.30;1.80;;;;;;;-0.63;100.00;91883.56;2544422;23;20008;-82
2023/03/11 01:12:40;;;;;;;1.83;1.73;;;;;;;-0.43;100.00;91879.44;2532524;23;19998;-83
2023/03/11 01:13:41;;;;;;;2.72;1.85;;;;;;;-0.51;100.00;91876.06;2544775;23;20031;-83
2023/03/11 01:14:44;;;;;;;3.15;1.80;;;;;;;-0.33;100.00;91872.66;2557052;23;20383;-80
2023/03/11 01:15:45;;;;;;;2.28;1.90;;;;;;;-0.34;100.00;91869.31;2532216;23;20264;-84
2023/03/11 01:16:46;;;;;;;1.75;1.60;;;;;;;-0.16;100.00;91871.91;2520123;23;20451;-82
2023/03/11 01:17:48;;;;;;;2.80;2.10;;;;;;;-0.28;100.00;91865.16;2532383;23;20014;-84
2023/03/11 01:18:50;;;;;;;2.80;1.92;;;;;;;-0.58;100.00;91873.44;2532561;23;20417;-83
2023/03/11 01:19:51;;;;;;;3.33;2.13;;;;;;;-0.63;100.00;91876.44;2532396;23;20002;-81
2023/03/11 01:20:58;;;;;;;2.78;1.92;;;;;;;-0.72;100.00;91862.19;2544412;23;20005;-82
2023/03/11 01:22:04;;;;;;;2.00;1.80;;;;;;;-0.54;100.00;91863.69;2531536;23;20006;-82
2023/03/11 01:23:21;;;;;;;1.95;1.85;;;;;;;-0.41;100.00;91864.06;2535076;23;20002;-84
2023/03/11 01:24:23;;;;;;;3.05;1.95;;;;;;;-0.50;100.00;91879.44;2543443;23;20016;-84
2023/03/11 01:25:25;;;;;;;2.20;2.00;;;;;;;-0.62;100.00;91885.81;2531192;23;20073;-82
2023/03/11 01:26:26;;;;;;;2.42;2.20;;;;;;;-0.47;100.00;91880.56;2519434;23;20053;-83
2023/03/11 01:27:27;;;;;;;3.50;2.33;;;;;;;-0.60;100.00;91888.06;2507049;23;20038;-82
2023/03/11 01:28:28;;;;;;;2.38;2.17;;;;;;;-0.85;100.00;91888.81;2519101;23;20057;-80
2023/03/11 01:29:29;;;;;;;3.30;2.38;;;;;;;-0.74;100.00;91898.56;2531849;23;20009;-85
2023/03/11 01:30:30;;;;;;;2.45;2.22;;;;;;;-0.84;100.00;91881.69;2544630;23;20013;-85
2023/03/11 01:31:31;;;;;;;3.13;2.20;;;;;;;-0.65;100.00;91898.94;2544573;23;20005;-83
2023/03/11 01:32:32;;;;;;;5.65;2.85;;;;;;;-0.69;100.00;91891.06;2531138;23;20006;-83
2023/03/11 01:33:33;;;;;;;2.80;2.60;;;;;;;-0.67;100.00;91885.44;2543279;23;20016;-82
2023/03/11 01:34:35;;;;;;;3.10;2.45;;;;;;;-0.83;100.00;91875.34;2543163;23;20028;-81
2023/03/11 01:35:36;;;;;;;3.05;2.60;;;;;;;-0.84;100.00;91886.94;2531407;23;20002;-83
2023/03/11 01:36:37;;;;;;;5.25;2.92;;;;;;;-0.89;100.00;91880.19;2519887;23;20089;-82
2023/03/11 01:37:38;;;;;;;2.92;2.72;;;;;;;-0.84;100.00;91871.94;2531827;23;20088;-86
2023/03/11 01:38:39;;;;;;;3.15;2.53;;;;;;;-0.91;100.00;91864.06;2531883;23;20009;-83
2023/03/11 01:39:40;;;;;;;5.57;2.80;;;;;;;-0.78;100.00;91853.97;2520086;23;20426;-80
2023/03/11 01:40:46;;;;;;;3.53;2.38;;;;;;;-0.72;100.00;91868.19;2508345;23;20014;-81
2023/03/11 01:41:47;;;;;;;4.35;3.10;;;;;;;-0.83;100.00;91864.84;2510350;23;20006;-83
2023/03/11 01:42:48;;;;;;;4.10;2.50;;;;;;;-0.84;100.00;91858.06;2519644;23;20450;-80
2023/03/11 01:43:55;;;;;;;4.82;3.30;;;;;;;-0.81;100.00;91865.19;2531180;23;20048;-81
2023/03/11 01:44:57;;;;;;;3.60;3.00;;;;;;;-0.87;100.00;91872.69;2531427;23;20316;-83
2023/03/11 01:46:00;;;;;;;5.47;3.10;;;;;;;-0.73;100.00;91886.94;2542371;23;20051;-84
2023/03/11 01:47:02;;;;;;;3.72;2.42;;;;;;;-0.64;100.00;91895.19;2555350;23;20008;-80
2023/03/11 01:48:04;;;;;;;3.03;2.65;;;;;;;-0.71;100.00;91901.16;2530660;23;20372;-83
2023/03/11 01:49:05;;;;;;;3.97;2.88;;;;;;;-0.76;100.00;91897.06;2531487;23;20009;-83
2023/03/11 01:50:11;;;;;;;4.45;3.22;;;;;;;-0.88;100.00;91892.19;2531331;23;20016;-83
2023/03/11 01:51:14;;;;;;;5.15;2.95;;;;;;;-0.91;100.00;91886.94;2532252;23;20012;-82
2023/03/11 01:52:15;;;;;;;2.72;2.17;;;;;;;-0.75;100.00;91892.53;2518753;23;20358;-84
2023/03/11 01:53:17;;;;;;;3.55;3.03;;;;;;;-0.68;100.00;91892.56;2530202;23;20009;-81
2023/03/11 01:54:32;;;;;;;2.92;2.72;;;;;;;-0.95;100.00;91884.31;2530413;23;20016;-83
2023/03/11 01:55:34;;;;;;;3.10;2.78;;;;;;;-0.92;100.00;91872.31;2533691;23;20164;-83
2023/03/11 01:56:37;;;;;;;3.42;2.80;;;;;;;-1.03;100.00;91880.19;2530445;23;20080;-82
2023/03/11 01:57:41;;;;;;;4.82;3.00;;;;;;;-0.83;100.00;91872.72;2531794;23;20056;-83
2023/03/11 01:58:47;;;;;;;3.58;2.78;;;;;;;-1.12;100.00;91877.91;2531232;23;20036;-82
2023/03/11 01:59:52;;;;;;;3.13;2.83;;;;;;;-1.08;100.00;91877.94;2519553;23;20054;-82
2023/03/11 02:00:55;;;;;;;4.15;2.75;;;;;;;-1.19;100.00;91872.66;2531008;23;20101;-83
2023/03/11 02:02:22;;;;;;;4.00;3.08;;;;;;;-1.25;100.00;91862.91;2530022;23;20013;-84
2023/03/11 02:03:30;;;;;;;3.42;3.13;;;;;;;-1.29;100.00;91853.16;2534847;23;20001;-81
2023/03/11 02:04:34;;;;;;;4.03;3.05;;;;;;;-1.04;100.00;91855.81;2541983;23;20001;-82
2023/03/11 02:05:36;;;;;;;3.45;3.08;;;;;;;-1.12;100.00;91856.94;2542214;23;20017;-83
2023/03/11 02:06:38;;;;;;;5.45;2.97;;;;;;;-1.12;100.00;91850.94;2530166;23;20002;-85
2023/03/11 02:07:40;;;;;;;4.53;2.80;;;;;;;-1.12;100.00;91861.44;2530260;23;20227;-82
2023/03/11 02:08:43;;;;;;;4.20;3.08;;;;;;;-1.09;100.00;91871.94;2530331;23;20355;-82
2023/03/11 02:09:44;;;;;;;5.28;3.30;;;;;;;-1.22;100.00;91867.41;2530693;23;20076;-85
2023/03/11 02:10:48;;;;;;;3.63;2.85;;;;;;;-1.21;100.00;91867.03;2542585;23;20005;-84
2023/03/11 02:11:50;;;;;;;4.43;3.13;;;;;;;-1.12;100.00;91862.19;2542126;23;20009;-83
2023/03/11 02:12:52;;;;;;;4.05;3.33;;;;;;;-1.11;100.00;91850.56;2517901;23;20002;-84
2023/03/11 02:13:57;;;;;;;4.05;3.33;;;;;;;-1.13;100.00;91849.47;2517788;23;20074;-81
2023/03/11 02:14:59;;;;;;;4.75;3.20;;;;;;;-1.08;100.00;91859.56;2530472;23;20497;-81
2023/03/11 02:16:02;;;;;;;3.38;2.97;;;;;;;-0.97;100.00;91864.81;2518012;23;20407;-83
2023/03/11 02:17:03;;;;;;;3.88;2.90;;;;;;;-1.16;100.00;91866.66;2518460;23;20018;-81
2023/03/11 02:19:46;;;;;;;;;;;;;;;-1.30;100.00;91871.91;2130365;27;20651;-78
2023/03/11 02:26:52;;;;;;;;;;;;;;;;;;;;;
2023/03/11 02:30:25;;;;;;;7.03;3.03;;;;;;;-1.36;100.00;91868.13;2085018;28;20072;-78
2023/03/11 02:31:39;;;;;;;2.85;2.47;;;;;;;-1.35;100.00;91880.13;2113929;27;20042;-78
2023/03/11 02:32:48;;;;;;;5.47;2.92;;;;;;;-1.41;100.00;91874.47;2105796;28;20035;-79
2023/03/11 02:33:54;;;;;;;5.50;3.22;;;;;;;-1.27;100.00;91879.03;2106328;28;20075;-77
2023/03/11 02:34:57;;;;;;;5.40;3.00;;;;;;;-1.28;100.00;91882.75;2103625;28;20611;-76
2023/03/11 02:36:27;;;;;;;5.63;3.13;;;;;;;-1.36;100.00;91879.38;2109763;27;20036;-76
2023/03/11 02:37:29;;;;;;;6.75;3.15;;;;;;;-1.42;100.00;91883.47;2099923;28;20123;-75
2023/03/11 02:38:31;;;;;;;5.38;3.50;;;;;;;-1.45;100.00;91886.06;2106834;28;20150;-76
2023/03/11 02:39:35;;;;;;;5.90;3.60;;;;;;;-1.59;100.00;91886.78;2105025;28;20135;-76
2023/03/11 02:40:48;;;;;;;5.45;2.33;;;;;;;-1.52;100.00;91890.19;2104302;28;20032;-77
2023/03/11 02:42:06;;;;;;;5.45;3.50;;;;;;;-1.67;100.00;91900.97;2108581;28;20052;-76
2023/03/11 02:47:29;;;;;;;;;;;;;;;;;;;;;
2023/03/11 02:49:45;;;;;;;;;;;;;;;;;;;;;
2023/03/11 02:51:42;;;;;;;;;;;;;;;;;;;;;
2023/03/11 02:53:40;;;;;;;4.15;3.10;;;;;;;-1.57;100.00;91898.41;2121465;27;20036;-76
2023/03/11 02:55:11;;;;;;;3.63;3.00;;;;;;;-1.64;100.00;91908.84;2118473;27;20526;-77
2023/03/11 03:16:40;;;;;;;6.15;3.08;;;;;;;-1.70;100.00;91892.00;2080253;28;20053;-81
2023/03/11 03:17:42;;;;;;;6.68;3.03;;;;;;;-1.63;100.00;91896.50;2068121;28;20466;-84
2023/03/11 03:18:44;;;;;;;4.78;3.10;;;;;;;-1.66;100.00;91905.84;2060317;28;20026;-82
2023/03/11 03:19:45;;;;;;;4.88;3.10;;;;;;;-1.69;100.00;91906.59;2060660;28;20149;-84
2023/03/11 03:20:46;;;;;;;5.70;3.25;;;;;;;-1.65;100.00;91890.88;2052741;28;20039;-83
2023/03/11 03:21:48;;;;;;;5.40;3.30;;;;;;;-1.65;100.00;91883.78;2052493;28;20547;-82
2023/03/11 03:22:49;;;;;;;6.95;2.95;;;;;;;-1.62;100.00;91880.44;2061229;28;20026;-81
2023/03/11 03:23:50;;;;;;;3.70;2.90;;;;;;;-1.53;100.00;91877.47;2056648;28;20038;-80
2023/03/11 03:24:52;;;;;;;6.18;3.30;;;;;;;-1.63;100.00;91884.13;2052743;28;20109;-79
2023/03/11 03:25:54;;;;;;;6.18;3.05;;;;;;;-1.65;100.00;91875.91;2052872;28;20061;-82
2023/03/11 03:26:55;;;;;;;3.60;3.13;;;;;;;-1.50;100.00;91874.06;2049607;28;20031;-83
2023/03/11 03:27:56;;;;;;;7.65;2.88;;;;;;;-1.65;100.00;91878.53;2052612;28;20031;-82
2023/03/11 03:28:57;;;;;;;5.68;3.15;;;;;;;-1.62;100.00;91879.69;2052367;28;20405;-79
2023/03/11 03:29:58;;;;;;;6.15;3.63;;;;;;;-1.74;100.00;91882.63;2064981;28;20037;-82
2023/03/11 03:31:04;;;;;;;4.57;3.45;;;;;;;-1.68;100.00;91884.50;2052834;28;20062;-82
2023/03/11 03:32:05;;;;;;;5.43;3.03;;;;;;;-1.57;100.00;91887.91;2051323;28;20027;-82
2023/03/11 03:33:07;;;;;;;5.38;2.80;;;;;;;-1.62;100.00;91893.53;2053513;28;20039;-83
2023/03/11 03:34:08;;;;;;;6.55;2.90;;;;;;;-1.60;100.00;91895.75;2067031;28;20387;-82
2023/03/11 03:35:09;;;;;;;6.85;2.90;;;;;;;-1.74;100.00;91891.22;2058955;28;20050;-83
2023/03/11 03:36:13;;;;;;;7.38;3.45;;;;;;;-1.67;100.00;91896.47;2050511;28;20026;-79
2023/03/11 03:37:14;;;;;;;5.07;3.15;;;;;;;-1.74;100.00;91888.59;2061878;28;20030;-82
2023/03/11 03:38:16;;;;;;;5.78;2.63;;;;;;;-1.67;100.00;91893.84;2051536;28;20050;-81
2023/03/11 03:39:20;;;;;;;5.85;3.10;;;;;;;-1.71;100.00;91887.88;2051855;28;20027;-84
2023/03/11 03:40:21;;;;;;;5.78;3.15;;;;;;;-1.68;100.00;91889.75;2051859;28;20111;-81
2023/03/11 03:41:22;;;;;;;5.60;3.22;;;;;;;-1.78;100.00;91899.06;2059370;28;20480;-83
2023/03/11 03:42:24;;;;;;;4.38;2.97;;;;;;;-1.56;100.00;91910.38;2051948;28;20090;-80
2023/03/11 03:43:25;;;;;;;4.55;3.13;;;;;;;-1.64;100.00;91913.34;2052409;28;20043;-81
2023/03/11 03:44:26;;;;;;;6.43;3.03;;;;;;;-1.67;100.00;91912.19;2050679;28;20040;-81
2023/03/11 03:45:33;;;;;;;6.53;3.38;;;;;;;-1.72;100.00;91907.31;2051913;28;20085;-82
2023/03/11 03:46:40;;;;;;;3.55;2.72;;;;;;;-1.70;100.00;91905.09;2051059;28;20110;-82
2023/03/11 03:47:41;;;;;;;5.30;3.30;;;;;;;-1.70;100.00;91906.97;2054113;28;20542;-83
2023/03/11 03:48:42;;;;;;;6.10;2.92;;;;;;;-1.75;100.00;91910.69;2045485;28;20031;-81
2023/03/11 03:49:44;;;;;;;6.80;3.00;;;;;;;-1.94;100.00;91908.34;2043275;28;20488;-83
2023/03/11 03:50:44;;;;;;;5.75;3.15;;;;;;;-1.96;100.00;91907.97;2043864;28;20023;-83
2023/03/11 03:51:45;;;;;;;3.53;2.80;;;;;;;-2.01;100.00;91918.78;2047476;28;20038;-85
2023/03/11 03:52:47;;;;;;;4.15;2.90;;;;;;;-1.96;100.00;91921.81;2055042;28;20133;-82
2023/03/11 03:53:48;;;;;;;6.50;2.90;;;;;;;-2.07;100.00;91919.09;2058805;28;20484;-81
2023/03/11 03:54:49;;;;;;;4.38;3.20;;;;;;;-2.08;100.00;91919.47;2059108;28;20031;-80
2023/03/11 03:55:50;;;;;;;3.58;2.63;;;;;;;-2.10;100.00;91922.47;2059257;28;20145;-82
2023/03/11 03:56:51;;;;;;;5.95;3.15;;;;;;;-2.15;100.00;91922.81;2055172;28;20027;-82
2023/03/11 03:57:52;;;;;;;4.65;3.15;;;;;;;-2.08;100.00;91927.34;2044007;28;20027;-86
2023/03/11 03:58:53;;;;;;;3.40;2.83;;;;;;;-1.87;100.00;91926.72;2046981;28;20210;-83
2023/03/11 03:59:55;;;;;;;5.05;3.28;;;;;;;-1.95;100.00;91935.63;2055074;28;20484;-82
2023/03/11 04:00:57;;;;;;;4.95;2.55;;;;;;;-1.88;100.00;91944.28;2039688;28;20122;-82
2023/03/11 04:01:58;;;;;;;4.88;2.90;;;;;;;-1.87;100.00;91953.63;2043466;28;20106;-84
2023/03/11 04:02:59;;;;;;;5.30;2.92;;;;;;;-1.79;100.00;91954.44;2044524;28;20556;-83
2023/03/11 04:04:01;;;;;;;5.95;3.00;;;;;;;-1.91;100.00;91957.34;2041231;29;20023;-80
2023/03/11 04:05:02;;;;;;;5.45;3.13;;;;;;;-1.88;100.00;91960.00;2053032;28;20031;-81
2023/03/11 04:06:22;;;;;;;4.25;2.85;;;;;;;-1.62;100.00;91955.66;2055341;28;20392;-80
2023/03/11 04:07:24;;;;;;;6.55;2.70;;;;;;;-1.70;100.00;91951.50;2061672;28;20062;-82
2023/03/11 04:08:25;;;;;;;4.20;2.78;;;;;;;-1.81;100.00;91951.41;2066718;28;20152;-82
2023/03/11 04:09:26;;;;;;;5.32;2.67;;;;;;;-1.84;100.00;91944.31;2052278;28;20019;-80
2023/03/11 04:10:27;;;;;;;3.92;2.75;;;;;;;-1.96;100.00;91952.47;2046818;28;20477;-82
2023/03/11 04:11:28;;;;;;;4.40;3.20;;;;;;;-2.01;100.00;91953.56;2045110;28;20035;-82
2023/03/11 04:12:29;;;;;;;3.42;2.88;;;;;;;-2.06;100.00;91956.53;2053105;28;20503;-83
2023/03/11 04:13:30;;;;;;;4.00;2.90;;;;;;;-2.01;100.00;91950.19;2052674;28;20019;-81
2023/03/11 04:14:31;;;;;;;4.72;2.65;;;;;;;-2.03;100.00;91948.69;2044465;28;20115;-84
2023/03/11 04:15:32;;;;;;;5.95;2.47;;;;;;;-1.91;100.00;91949.50;2059403;28;20444;-82
2023/03/11 04:16:34;;;;;;;7.05;2.95;;;;;;;-2.05;100.00;91945.69;2075268;28;20049;-85
2023/03/11 04:17:36;;;;;;;6.35;2.80;;;;;;;-1.86;100.00;91952.53;2067522;28;20029;-83
2023/03/11 04:18:37;;;;;;;7.25;2.67;;;;;;;-1.93;100.00;91946.47;2059599;28;20019;-84
2023/03/11 04:19:39;;;;;;;8.55;2.90;;;;;;;-1.96;100.00;91950.59;2051059;28;20429;-83
2023/03/11 04:20:41;;;;;;;5.85;2.33;;;;;;;-1.93;100.00;91954.34;2046630;28;20124;-80
2023/03/11 04:21:42;;;;;;;4.05;2.50;;;;;;;-1.96;100.00;91955.84;2046761;28;20050;-84
2023/03/11 04:22:43;;;;;;;4.43;2.75;;;;;;;-1.98;100.00;91954.69;2051146;28;20062;-80
2023/03/11 04:23:44;;;;;;;4.88;2.22;;;;;;;-2.01;100.00;91942.34;2041039;28;20031;-82
2023/03/11 04:24:45;;;;;;;5.25;2.88;;;;;;;-2.08;100.00;91948.28;2042225;28;20518;-83
2023/03/11 04:25:46;;;;;;;7.60;2.95;;;;;;;-2.19;100.00;91934.38;2058249;28;20077;-81
2023/03/11 04:26:48;;;;;;;11.15;2.55;;;;;;;-2.01;100.00;91937.13;2079215;28;20158;-83
2023/03/11 04:27:51;;;;;;;6.18;2.25;;;;;;;-2.01;100.00;91935.25;2059792;28;20035;-83
2023/03/11 04:28:52;;;;;;;3.92;2.35;;;;;;;-2.19;100.00;91929.91;2048228;28;20148;-84
2023/03/11 04:29:52;;;;;;;3.97;2.30;;;;;;;-2.31;100.00;91930.94;2055281;28;20193;-80
2023/03/11 04:30:53;;;;;;;7.03;1.98;;;;;;;-2.19;100.00;91940.38;2053500;28;20117;-82
2023/03/11 04:31:54;;;;;;;2.75;1.88;;;;;;;-2.26;100.00;91939.56;2052212;28;20475;-81
2023/03/11 04:32:55;;;;;;;3.17;1.85;;;;;;;-2.31;100.00;91943.28;2063371;28;20041;-80
2023/03/11 04:33:56;;;;;;;5.18;2.88;;;;;;;-2.39;100.00;91941.72;2052652;28;20576;-82
2023/03/11 04:34:57;;;;;;;5.65;1.63;;;;;;;-2.31;100.00;91938.78;2054649;28;20035;-82
2023/03/11 04:35:58;;;;;;;4.47;2.03;;;;;;;-2.26;100.00;91948.16;2058130;28;20034;-83
2023/03/11 04:36:59;;;;;;;4.65;1.80;;;;;;;-2.20;100.00;91959.03;2055455;28;20023;-81
2023/03/11 04:38:00;;;;;;;7.00;2.63;;;;;;;-1.99;100.00;91942.72;2050958;28;20035;-83
2023/03/11 04:39:02;;;;;;;5.25;1.90;;;;;;;-2.00;100.00;91946.47;2051543;28;20505;-81
2023/03/11 04:40:05;;;;;;;4.25;2.10;;;;;;;-2.19;100.00;91950.09;2053499;28;20080;-83
2023/03/11 04:41:06;;;;;;;5.93;2.30;;;;;;;-1.88;100.00;91952.16;2059250;28;20067;-83
2023/03/11 04:42:07;;;;;;;3.55;1.85;;;;;;;-2.16;100.00;91949.34;2053129;28;20452;-82
2023/03/11 04:43:08;;;;;;;5.30;2.20;;;;;;;-2.23;100.00;91957.91;2050405;28;20038;-82
2023/03/11 04:44:09;;;;;;;2.42;1.92;;;;;;;-2.36;100.00;91951.47;2044201;28;20087;-84
2023/03/11 04:45:10;;;;;;;6.43;2.10;;;;;;;-2.31;100.00;91954.50;2052277;28;20389;-85
2023/03/11 04:46:11;;;;;;;3.92;1.92;;;;;;;-2.22;100.00;91954.19;2054993;28;20025;-80
2023/03/11 04:47:13;;;;;;;6.63;2.20;;;;;;;-1.94;100.00;91955.47;2052912;28;20031;-81
2023/03/11 04:48:13;;;;;;;4.50;2.13;;;;;;;-2.19;100.00;91957.94;2059618;28;20023;-84
2023/03/11 04:49:14;;;;;;;5.20;2.03;;;;;;;-2.20;100.00;91959.78;2062983;28;20049;-83
2023/03/11 04:50:17;;;;;;;5.13;2.10;;;;;;;-2.13;100.00;91951.25;2050700;28;20019;-81
2023/03/11 04:51:18;;;;;;;5.13;2.38;;;;;;;-2.16;100.00;91960.56;2062542;28;20040;-81
2023/03/11 04:52:19;;;;;;;5.63;2.40;;;;;;;-2.25;100.00;91954.16;2052851;28;20090;-85
2023/03/11 04:53:21;;;;;;;3.08;1.88;;;;;;;-2.01;100.00;91953.56;2053120;28;20023;-81
2023/03/11 04:54:22;;;;;;;3.42;1.80;;;;;;;-1.99;100.00;91959.19;2055318;28;20388;-84
2023/03/11 04:55:23;;;;;;;8.07;2.15;;;;;;;-2.10;100.00;91955.75;2054812;28;20558;-82
2023/03/11 04:56:24;;;;;;;6.38;1.77;;;;;;;-2.24;100.00;91966.13;2045746;28;20087;-82
2023/03/11 04:57:26;;;;;;;5.47;2.08;;;;;;;-2.35;100.00;91963.44;2051575;28;20018;-81
2023/03/11 04:58:27;;;;;;;5.63;2.47;;;;;;;-2.39;100.00;91960.78;2058773;28;20121;-82
2023/03/11 04:59:29;;;;;;;4.13;1.98;;;;;;;-2.36;100.00;91962.69;2049624;28;20122;-81
2023/03/11 05:00:30;;;;;;;3.75;2.30;;;;;;;-2.38;100.00;91972.00;2053587;28;20079;-84
2023/03/11 05:01:31;;;;;;;4.30;2.13;;;;;;;-2.33;100.00;91964.59;2048930;28;20126;-82
2023/03/11 05:02:32;;;;;;;2.55;1.90;;;;;;;-2.26;100.00;91965.75;2058405;28;20049;-83
2023/03/11 05:03:33;;;;;;;4.53;2.42;;;;;;;-2.35;100.00;91968.66;2043389;28;20120;-85
2023/03/11 05:04:34;;;;;;;8.48;2.40;;;;;;;-2.05;100.00;91965.88;2055016;28;20027;-83
2023/03/11 05:05:36;;;;;;;5.53;2.25;;;;;;;-1.92;100.00;91971.56;2054668;28;20030;-82
2023/03/11 05:06:37;;;;;;;4.75;2.40;;;;;;;-1.96;100.00;91965.56;2044899;28;20763;-80
2023/03/11 05:07:38;;;;;;;5.75;2.70;;;;;;;-2.10;100.00;91972.22;2038806;28;20107;-82
2023/03/11 05:08:40;;;;;;;7.38;2.50;;;;;;;-2.01;100.00;91966.66;2046196;28;20440;-83
2023/03/11 05:09:41;;;;;;;5.25;2.33;;;;;;;-2.12;100.00;91965.81;2046620;28;20353;-83
2023/03/11 05:10:43;;;;;;;7.07;2.40;;;;;;;-2.16;100.00;91976.28;2042083;28;20020;-82
2023/03/11 05:11:44;;;;;;;4.78;2.40;;;;;;;-2.05;100.00;91977.09;2054046;28;20523;-83
2023/03/11 05:12:45;;;;;;;6.45;2.70;;;;;;;-2.22;100.00;91974.38;2053932;28;20062;-83
2023/03/11 05:13:46;;;;;;;7.57;2.53;;;;;;;-2.19;100.00;91969.16;2046659;28;20019;-83
2023/03/11 05:14:47;;;;;;;4.28;2.15;;;;;;;-2.21;100.00;91966.13;2043351;28;20379;-81
2023/03/11 05:15:48;;;;;;;8.80;2.47;;;;;;;-2.29;100.00;91967.94;2050824;28;20046;-80
2023/03/11 05:16:49;;;;;;;5.50;2.20;;;;;;;-2.35;100.00;91971.28;2058311;28;20055;-83
2023/03/11 05:17:50;;;;;;;3.88;2.40;;;;;;;-2.40;100.00;91964.53;2051107;28;20432;-81
2023/03/11 05:18:51;;;;;;;3.63;2.20;;;;;;;-2.20;100.00;91970.25;2044211;28;20540;-83
2023/03/11 05:19:52;;;;;;;3.95;2.20;;;;;;;-2.31;100.00;91977.28;2043534;28;20032;-81
2023/03/11 05:20:53;;;;;;;3.28;2.25;;;;;;;-2.25;100.00;91970.59;2043927;28;20031;-83
2023/03/11 05:21:54;;;;;;;3.58;2.38;;;;;;;-2.28;100.00;91977.31;2046497;29;20512;-83
2023/03/11 05:22:55;;;;;;;4.78;2.15;;;;;;;-2.44;100.00;91976.81;2051679;28;20031;-80
2023/03/11 05:23:56;;;;;;;4.00;1.92;;;;;;;-2.51;100.00;91981.97;2058377;28;20127;-84
2023/03/11 05:24:57;;;;;;;5.20;1.75;;;;;;;-2.41;100.00;91976.09;2053560;28;20034;-82
2023/03/11 05:25:58;;;;;;;3.42;1.70;;;;;;;-2.36;100.00;91978.38;2043688;28;20520;-84
2023/03/11 05:27:00;;;;;;;5.57;2.00;;;;;;;-2.37;100.00;91978.72;2051044;28;20038;-84
2023/03/11 05:28:02;;;;;;;4.22;2.28;;;;;;;-2.41;100.00;91970.13;2045454;28;20069;-82
2023/03/11 05:29:03;;;;;;;7.70;2.03;;;;;;;-2.45;100.00;91971.97;2044861;28;20038;-85
2023/03/11 05:30:05;;;;;;;3.75;2.15;;;;;;;-2.52;100.00;91962.19;2050216;28;20567;-84
2023/03/11 05:31:09;;;;;;;5.55;2.30;;;;;;;-2.14;100.00;91971.44;2054287;28;20037;-81